Time;durP1;ratioP1;P1;durP2;ratioP2;P2;SDS_P1;SDS_P2;PMS_P1;PMS_P2;Temp;Humidity;BMP_temperature;BMP_pressure;BME280_temperature;BME280_humidity;BME280_pressure;Samples;Min_cycle;Max_cycle;Signal;HPM_P1;HPM_P2
2021/11/01 00:00:52;;;;;;;3.08;0.43;;;;;;;16.04;84.36;100182.19;4982947;28;20133;-63
2021/11/01 00:03:19;;;;;;;3.78;1.52;;;;;;;16.03;84.11;100197.41;4990325;28;20082;-63
2021/11/01 00:05:47;;;;;;;3.33;1.40;;;;;;;15.98;84.22;100180.69;4986319;28;20122;-64
2021/11/01 00:08:14;;;;;;;6.72;1.00;;;;;;;15.88;84.13;100173.34;4989932;28;20129;-63
2021/11/01 00:10:40;;;;;;;1.58;0.50;;;;;;;15.85;83.98;100174.81;4980403;28;20137;-66
2021/11/01 00:13:07;;;;;;;2.17;0.88;;;;;;;15.87;83.90;100183.78;4977154;28;20109;-66
2021/11/01 00:15:34;;;;;;;1.67;1.00;;;;;;;15.90;83.95;100189.91;4984521;28;20542;-62
2021/11/01 00:18:01;;;;;;;1.63;0.82;;;;;;;15.86;83.76;100187.78;4992102;28;20077;-62
2021/11/01 00:20:28;;;;;;;3.85;1.02;;;;;;;15.91;83.63;100188.78;4992203;28;20137;-64
2021/11/01 00:22:55;;;;;;;1.77;0.65;;;;;;;15.82;83.23;100181.09;4994046;28;20051;-65
2021/11/01 00:25:22;;;;;;;3.03;0.85;;;;;;;15.86;83.53;100190.59;4989110;28;20074;-67
2021/11/01 00:27:50;;;;;;;3.35;0.65;;;;;;;15.84;83.62;100187.25;4989735;28;20144;-64
2021/11/01 00:30:17;;;;;;;4.85;0.85;;;;;;;15.76;83.54;100185.25;4993582;28;20133;-63
2021/11/01 00:32:47;;;;;;;3.97;0.90;;;;;;;15.73;83.44;100187.88;4995098;28;20042;-64
2021/11/01 00:35:14;;;;;;;1.63;1.00;;;;;;;15.62;83.60;100164.75;4994787;28;20429;-60
2021/11/01 00:37:41;;;;;;;2.58;0.60;;;;;;;15.68;83.69;100179.56;4986519;28;20137;-66
2021/11/01 00:40:08;;;;;;;3.17;0.73;;;;;;;15.65;83.41;100187.44;4976475;28;20051;-68
2021/11/01 00:42:35;;;;;;;4.88;0.88;;;;;;;15.70;83.49;100194.97;4988897;28;20549;-68
2021/11/01 00:45:02;;;;;;;3.78;1.00;;;;;;;15.73;83.52;100183.06;4988947;28;20077;-67
2021/11/01 00:47:29;;;;;;;2.88;1.05;;;;;;;15.81;83.21;100201.16;5004317;28;20066;-64
2021/11/01 00:49:56;;;;;;;3.63;1.27;;;;;;;15.77;83.29;100198.16;4988278;28;20478;-62
2021/11/01 00:52:26;;;;;;;1.80;1.00;;;;;;;15.80;83.41;100211.59;4992049;28;20153;-66
2021/11/01 00:54:59;;;;;;;4.15;1.10;;;;;;;15.78;83.71;100202.63;4986460;28;20125;-68
2021/11/01 00:57:27;;;;;;;4.80;1.20;;;;;;;15.78;83.64;100211.06;4995330;28;20081;-67
2021/11/01 00:59:56;;;;;;;3.67;1.05;;;;;;;15.62;83.60;100176.88;4989753;28;20097;-70
2021/11/01 01:02:24;;;;;;;2.58;0.90;;;;;;;15.77;83.72;100206.59;4989798;28;20089;-68
2021/11/01 01:04:51;;;;;;;1.77;0.73;;;;;;;15.70;83.72;100194.16;4988563;28;20061;-67
2021/11/01 01:07:18;;;;;;;7.65;1.45;;;;;;;15.73;83.31;100222.47;4992494;28;20675;-64
2021/11/01 01:09:45;;;;;;;2.75;0.60;;;;;;;15.71;83.59;100219.16;4994263;28;20137;-69
2021/11/01 01:12:12;;;;;;;5.47;0.90;;;;;;;15.70;83.68;100216.69;4995001;28;20116;-64
2021/11/01 01:14:45;;;;;;;6.38;1.10;;;;;;;15.61;83.26;100196.88;4991983;28;20069;-64
2021/11/01 01:17:12;;;;;;;6.97;1.50;;;;;;;15.82;83.11;100202.81;4981136;28;20137;-69
2021/11/01 01:19:52;;;;;;;8.55;1.10;;;;;;;15.90;83.24;100198.34;4989743;28;20074;-67
2021/11/01 01:22:23;;;;;;;3.40;1.10;;;;;;;15.92;83.17;100196.88;4989035;28;20109;-67
2021/11/01 01:24:49;;;;;;;4.50;1.02;;;;;;;15.96;83.04;100195.06;4985650;28;20467;-68
2021/11/01 01:27:16;;;;;;;10.68;1.20;;;;;;;15.93;82.89;100187.31;4986835;28;20047;-67
2021/11/01 01:29:43;;;;;;;9.55;1.75;;;;;;;15.96;83.05;100197.06;4993751;28;20070;-67
2021/11/01 01:32:10;;;;;;;8.07;1.42;;;;;;;15.92;83.01;100193.25;4988510;28;20097;-67
2021/11/01 01:34:37;;;;;;;10.40;1.92;;;;;;;15.96;82.86;100180.16;4988271;28;20574;-71
2021/11/01 01:37:04;;;;;;;5.03;1.70;;;;;;;15.99;82.55;100200.06;4985211;28;20042;-63
2021/11/01 01:39:31;;;;;;;7.57;1.25;;;;;;;15.90;82.56;100181.47;4983937;28;20141;-63
2021/11/01 01:41:58;;;;;;;4.88;1.80;;;;;;;16.11;82.72;100213.53;4982810;28;20133;-62
2021/11/01 01:44:25;;;;;;;4.57;1.15;;;;;;;16.00;82.73;100175.53;4985483;28;20058;-64
2021/11/01 01:46:52;;;;;;;9.98;1.42;;;;;;;16.15;82.46;100214.53;4978929;28;20505;-64
2021/11/01 01:49:20;;;;;;;7.20;1.38;;;;;;;16.08;82.36;100208.56;4980308;28;20150;-64
2021/11/01 01:51:46;;;;;;;10.43;1.33;;;;;;;15.82;82.68;100178.28;4991719;28;20137;-64
2021/11/01 01:54:13;;;;;;;4.88;0.93;;;;;;;15.93;82.93;100207.00;4987869;28;20130;-64
2021/11/01 01:56:40;;;;;;;7.70;1.20;;;;;;;15.80;82.75;100193.88;4978180;28;20129;-64
2021/11/01 01:59:12;;;;;;;7.07;1.58;;;;;;;15.85;82.46;100205.78;4986997;28;20049;-64
2021/11/01 02:01:39;;;;;;;2.55;1.63;;;;;;;15.68;82.79;100193.63;4987726;28;20162;-64
2021/11/01 02:04:07;;;;;;;5.65;1.27;;;;;;;15.71;82.79;100201.44;4987695;28;20137;-65
2021/11/01 02:06:44;;;;;;;9.23;0.98;;;;;;;15.68;83.02;100207.72;4981878;28;20070;-66
2021/11/01 02:09:25;;;;;;;2.47;0.90;;;;;;;15.56;83.00;100208.28;4991447;28;20128;-65
2021/11/01 02:12:00;;;;;;;6.20;1.77;;;;;;;15.39;83.04;100189.31;4982493;28;20130;-64
2021/11/01 02:14:38;;;;;;;8.32;1.40;;;;;;;15.46;82.93;100206.56;4986136;28;20112;-64
2021/11/01 02:17:05;;;;;;;2.72;0.93;;;;;;;15.43;83.02;100212.00;4984963;28;20462;-64
2021/11/01 02:19:45;;;;;;;2.33;0.90;;;;;;;15.38;82.50;100204.50;4984097;28;20462;-63
2021/11/01 02:22:17;;;;;;;5.38;0.95;;;;;;;15.34;82.88;100214.75;4983025;28;20133;-64
2021/11/01 02:24:49;;;;;;;8.60;1.02;;;;;;;15.37;82.57;100208.50;4987558;28;20137;-64
2021/11/01 02:27:16;;;;;;;4.28;0.85;;;;;;;15.43;82.83;100214.81;4987246;28;20153;-63
2021/11/01 02:29:45;;;;;;;6.15;1.83;;;;;;;15.40;82.47;100205.03;4984285;28;20139;-63
2021/11/01 02:32:13;;;;;;;8.27;1.73;;;;;;;15.45;82.73;100220.94;4992486;28;20494;-67
2021/11/01 02:34:41;;;;;;;10.60;1.30;;;;;;;15.49;82.67;100224.81;4988647;28;20074;-68
2021/11/01 02:37:09;;;;;;;2.20;1.20;;;;;;;15.47;82.56;100213.03;4977372;28;20085;-68
2021/11/01 02:39:51;;;;;;;6.50;1.40;;;;;;;15.27;82.38;100186.25;4980843;28;20678;-67
2021/11/01 02:42:19;;;;;;;3.78;1.25;;;;;;;15.51;82.09;100216.84;4985876;28;20074;-69
2021/11/01 02:45:08;;;;;;;2.83;1.23;;;;;;;15.53;82.26;100211.75;4986926;28;20089;-72
2021/11/01 02:47:36;;;;;;;3.92;1.48;;;;;;;15.54;82.19;100200.16;4987929;28;20061;-72
2021/11/01 02:50:07;;;;;;;5.63;1.48;;;;;;;15.60;82.21;100198.03;4984963;28;20042;-75
2021/11/01 02:52:34;;;;;;;6.90;1.90;;;;;;;15.72;81.80;100214.34;4984484;28;20061;-72
2021/11/01 02:55:05;;;;;;;11.93;1.95;;;;;;;15.70;81.74;100206.25;4983279;28;20128;-72
2021/11/01 02:57:33;;;;;;;10.65;1.08;;;;;;;15.80;81.51;100210.75;4979801;28;20065;-66
2021/11/01 03:00:00;;;;;;;3.17;0.82;;;;;;;15.88;81.56;100222.06;4975413;28;20133;-66
2021/11/01 03:02:27;;;;;;;7.15;1.00;;;;;;;15.74;81.79;100201.63;4987303;28;20081;-66
2021/11/01 03:04:54;;;;;;;5.05;1.10;;;;;;;15.96;81.49;100230.84;4987898;28;20077;-66
2021/11/01 03:07:23;;;;;;;8.35;1.33;;;;;;;15.93;81.49;100226.72;4989789;28;20142;-67
2021/11/01 03:09:51;;;;;;;3.95;1.20;;;;;;;15.86;81.42;100213.13;4983790;28;20130;-68
2021/11/01 03:12:19;;;;;;;3.95;0.85;;;;;;;16.02;81.44;100236.03;4977676;28;20162;-68
2021/11/01 03:14:50;;;;;;;8.85;1.30;;;;;;;15.95;81.63;100215.13;4990563;28;20483;-67
2021/11/01 03:17:20;;;;;;;5.50;1.35;;;;;;;16.02;81.41;100230.38;4987083;28;20082;-67
2021/11/01 03:20:11;;;;;;;5.00;0.85;;;;;;;16.09;81.45;100236.38;4980734;28;20081;-67
2021/11/01 03:22:42;;;;;;;4.75;1.08;;;;;;;16.11;81.33;100245.34;4986642;28;20078;-67
2021/11/01 03:25:23;;;;;;;3.45;1.05;;;;;;;16.06;81.45;100230.56;4985943;28;20072;-67
2021/11/01 03:27:53;;;;;;;7.03;2.03;;;;;;;16.09;81.13;100239.19;4985696;28;20078;-68
2021/11/01 03:30:21;;;;;;;5.40;1.27;;;;;;;16.08;80.83;100248.00;4978477;28;20137;-69
2021/11/01 03:32:49;;;;;;;3.58;0.98;;;;;;;16.11;81.14;100248.16;4978222;28;20134;-69
2021/11/01 03:35:19;;;;;;;7.90;0.93;;;;;;;16.16;80.93;100243.53;4984549;28;20138;-69
2021/11/01 03:37:50;;;;;;;1.77;0.70;;;;;;;16.22;80.97;100243.06;4990473;28;20507;-65
2021/11/01 03:40:19;;;;;;;9.68;0.90;;;;;;;16.25;80.58;100248.06;4983030;28;20451;-64
2021/11/01 03:42:50;;;;;;;2.83;0.85;;;;;;;16.28;80.47;100255.03;4985298;28;20049;-65
2021/11/01 03:45:17;;;;;;;2.40;0.57;;;;;;;16.31;80.66;100260.84;4990182;28;20137;-64
2021/11/01 03:47:47;;;;;;;5.75;1.00;;;;;;;16.33;80.34;100258.50;4979285;28;20332;-67
2021/11/01 03:50:29;;;;;;;4.05;1.48;;;;;;;16.32;80.35;100259.69;4985573;28;20077;-67
2021/11/01 03:52:56;;;;;;;6.93;1.27;;;;;;;16.35;80.54;100266.66;4990322;28;20505;-65
2021/11/01 03:55:28;;;;;;;4.75;1.10;;;;;;;16.27;80.43;100259.84;4981355;28;20081;-62
2021/11/01 03:57:57;;;;;;;5.88;1.20;;;;;;;16.32;80.44;100273.75;4988281;28;20046;-64
2021/11/01 04:00:29;;;;;;;5.57;0.90;;;;;;;16.31;80.17;100272.13;4983449;28;20142;-65
2021/11/01 04:02:57;;;;;;;2.83;1.02;;;;;;;16.27;80.05;100265.47;4990460;28;20129;-65
2021/11/01 04:05:24;;;;;;;5.75;0.80;;;;;;;16.28;79.91;100271.94;4984994;28;20085;-67
2021/11/01 04:07:52;;;;;;;3.78;0.90;;;;;;;16.25;79.92;100281.84;4982439;28;20050;-67
2021/11/01 04:10:18;;;;;;;3.97;0.65;;;;;;;16.18;79.85;100277.88;4985793;28;20078;-66
2021/11/01 04:12:46;;;;;;;5.18;0.73;;;;;;;16.10;79.66;100265.38;4984824;28;20046;-65
2021/11/01 04:15:24;;;;;;;2.85;0.77;;;;;;;16.19;79.42;100280.34;4979539;28;20487;-66
2021/11/01 04:17:58;;;;;;;5.30;1.15;;;;;;;16.06;79.78;100267.19;4990675;28;20105;-66
2021/11/01 04:20:38;;;;;;;9.52;1.80;;;;;;;16.14;79.40;100282.47;4983466;28;20074;-67
2021/11/01 04:23:08;;;;;;;9.27;2.08;;;;;;;16.00;79.94;100282.56;4994692;28;20105;-66
2021/11/01 04:25:35;;;;;;;2.40;0.88;;;;;;;15.96;79.42;100288.00;4980194;28;20077;-66
2021/11/01 04:28:02;;;;;;;5.00;1.30;;;;;;;16.04;79.42;100290.06;4986707;28;20140;-66
2021/11/01 04:30:37;;;;;;;13.45;1.17;;;;;;;16.00;79.44;100282.56;4987145;28;20431;-66
2021/11/01 04:33:11;;;;;;;2.88;0.85;;;;;;;15.96;78.87;100284.38;4988483;28;20061;-65
2021/11/01 04:35:39;;;;;;;4.95;1.00;;;;;;;15.95;78.52;100274.25;4975839;28;20051;-66
2021/11/01 04:54:36;;;;;;;9.85;1.17;;;;;;;15.46;78.93;100285.38;4991328;28;23221;-68
2021/11/01 04:57:04;;;;;;;6.25;2.38;;;;;;;15.47;78.57;100280.56;4978049;28;20117;-68
2021/11/01 04:59:33;;;;;;;9.70;1.75;;;;;;;15.44;78.95;100286.81;4986090;28;20494;-65
2021/11/01 05:02:00;;;;;;;6.57;1.23;;;;;;;15.41;78.99;100289.13;4989402;28;20061;-62
2021/11/01 05:04:30;;;;;;;7.35;1.75;;;;;;;15.39;78.90;100297.06;4982894;28;20443;-63
2021/11/01 05:07:01;;;;;;;7.50;1.40;;;;;;;15.35;78.74;100298.84;4985246;28;20138;-62
2021/11/01 05:12:03;;;;;;;6.32;1.48;;;;;;;15.32;78.74;100301.47;4986107;28;20129;-60
2021/11/01 05:25:12;;;;;;;2.10;1.20;;;;;;;15.15;78.82;100307.78;4992220;28;20148;-69
2021/11/01 05:30:44;;;;;;;6.22;1.92;;;;;;;15.09;78.35;100307.06;4981471;28;20078;-66
2021/11/01 05:35:39;;;;;;;7.75;1.65;;;;;;;14.92;78.96;100293.66;4989793;28;20133;-62
2021/11/01 05:38:07;;;;;;;5.65;1.55;;;;;;;14.98;78.62;100293.56;4985773;28;20507;-63
2021/11/01 05:40:35;;;;;;;6.13;1.20;;;;;;;14.95;78.84;100300.66;4992831;28;20073;-63
2021/11/01 05:43:03;;;;;;;8.02;1.35;;;;;;;14.93;78.76;100309.38;4981424;28;20089;-64
2021/11/01 05:45:30;;;;;;;7.43;1.30;;;;;;;14.89;78.71;100305.53;4987335;28;20086;-64
2021/11/01 05:47:59;;;;;;;8.43;1.90;;;;;;;14.87;78.55;100307.84;4982361;28;20121;-67
2021/11/01 05:50:28;;;;;;;3.60;1.30;;;;;;;14.89;78.57;100311.16;4976955;28;20089;-66
2021/11/01 05:52:56;;;;;;;11.10;2.75;;;;;;;14.90;78.37;100321.25;4984322;28;20075;-66
2021/11/01 05:58:21;;;;;;;6.75;1.35;;;;;;;14.82;78.71;100307.13;4988744;28;20078;-65
2021/11/01 06:00:59;;;;;;;4.15;0.98;;;;;;;14.83;78.52;100329.28;4984176;28;20480;-65
2021/11/01 06:03:36;;;;;;;5.55;1.10;;;;;;;14.78;78.78;100326.59;4978759;28;20059;-64
2021/11/01 06:06:24;;;;;;;4.50;1.13;;;;;;;14.66;78.78;100310.25;4985968;28;20077;-64
2021/11/01 06:14:15;;;;;;;5.00;1.42;;;;;;;14.65;78.75;100317.03;4983024;28;20498;-60
2021/11/01 06:16:42;;;;;;;5.32;1.38;;;;;;;14.69;78.89;100328.47;4979653;28;20130;-60
2021/11/01 06:19:09;;;;;;;8.32;2.35;;;;;;;14.66;78.50;100329.94;4981717;28;20051;-60
2021/11/01 06:21:36;;;;;;;12.18;1.48;;;;;;;14.57;78.84;100334.63;4990422;28;20122;-62
2021/11/01 06:24:15;;;;;;;4.50;1.05;;;;;;;14.62;78.72;100339.31;4983518;28;20082;-62
2021/11/01 06:26:42;;;;;;;3.22;1.17;;;;;;;14.57;78.76;100345.06;4979791;28;20149;-62
2021/11/01 06:29:09;;;;;;;6.53;1.20;;;;;;;14.60;78.16;100353.69;4984851;28;20116;-67
2021/11/01 06:31:44;;;;;;;7.50;1.40;;;;;;;14.61;78.57;100346.09;4986419;28;20096;-66
2021/11/01 06:34:37;;;;;;;6.35;1.13;;;;;;;14.50;78.42;100345.47;4982853;28;20154;-63
2021/11/01 06:40:36;;;;;;;7.28;1.33;;;;;;;14.53;78.23;100358.03;4988439;28;20217;-64
2021/11/01 06:42:59;;;;;;;6.30;1.27;;;;;;;14.47;78.23;100351.69;4978914;28;20082;-65
2021/11/01 07:16:21;;;;;;;3.83;1.30;;;;;;;14.36;79.66;100396.00;4978256;28;20082;-62
2021/11/01 07:19:03;;;;;;;7.75;2.05;;;;;;;14.33;79.68;100396.63;4983912;28;20184;-63
2021/11/01 07:24:30;;;;;;;12.60;1.60;;;;;;;14.41;79.92;100403.47;4983945;28;20042;-62
2021/11/01 07:30:21;;;;;;;6.07;2.67;;;;;;;14.52;79.82;100407.78;4980952;28;20137;-62
2021/11/01 08:38:07;;;;;;;2.90;1.15;;;;;;;22.22;77.70;100495.69;4985803;28;20062;-61
2021/11/01 08:49:15;;;;;;;2.67;1.05;;;;;;;23.12;74.40;100510.41;4936903;28;20113;-60
2021/11/01 09:05:20;;;;;;;3.63;2.03;;;;;;;24.70;73.46;100529.19;4984305;28;20125;-60
2021/11/01 09:08:11;;;;;;;6.07;1.42;;;;;;;25.38;72.47;100521.09;4987577;28;20074;-60
2021/11/01 09:26:38;;;;;;;10.10;5.35;;;;;;;22.78;73.56;100545.25;4957386;28;20059;-61
2021/11/01 09:42:48;;;;;;;6.32;1.90;;;;;;;20.89;77.24;100539.94;4983927;28;20113;-59
2021/11/01 09:45:16;;;;;;;6.27;2.23;;;;;;;20.52;76.93;100520.78;4981725;28;20050;-59
2021/11/01 09:47:44;;;;;;;7.97;2.33;;;;;;;20.42;76.74;100557.25;4983437;28;20042;-57
2021/11/01 09:50:16;;;;;;;4.70;1.92;;;;;;;20.20;75.87;100547.06;4990436;28;20522;-58
2021/11/01 09:52:50;;;;;;;1.23;0.55;;;;;;;19.89;75.18;100534.13;4983651;28;20141;-59
2021/11/01 10:01:12;;;;;;;0.90;0.88;;;;;;;19.61;75.33;100545.94;4993220;28;20062;-60
2021/11/01 10:03:43;;;;;;;2.20;1.10;;;;;;;20.29;75.09;100551.50;4992508;28;20137;-60
2021/11/01 10:06:23;;;;;;;1.75;0.50;;;;;;;20.52;74.35;100551.19;4990119;28;20057;-60
2021/11/01 10:08:53;;;;;;;6.05;1.73;;;;;;;20.48;74.23;100547.34;4991242;28;20496;-60
2021/11/01 10:11:23;;;;;;;1.38;0.93;;;;;;;20.41;73.53;100535.72;4981434;28;20078;-59
2021/11/01 10:13:54;;;;;;;;;;;;;;;20.28;77.15;100540.50;4989921;28;20133;-59
2021/11/01 10:19:33;;;;;;;7.95;1.00;;;;;;;20.08;72.46;100547.84;4974636;28;20129;-60
2021/11/01 10:22:19;;;;;;;4.15;0.95;;;;;;;20.12;72.23;100545.97;4980263;28;20052;-60
2021/11/01 10:24:50;;;;;;;2.17;1.35;;;;;;;20.44;71.93;100552.03;4983805;28;20696;-60
2021/11/01 10:27:30;;;;;;;2.75;1.35;;;;;;;21.68;71.62;100537.81;4982919;28;20145;-60
2021/11/01 10:30:05;;;;;;;3.40;1.35;;;;;;;23.25;68.50;100550.19;4991815;28;20546;-60
2021/11/01 10:32:48;;;;;;;1.95;1.50;;;;;;;24.64;65.92;100544.97;4974222;28;20141;-61
2021/11/01 10:35:29;;;;;;;3.65;1.30;;;;;;;25.89;65.66;100555.88;4979830;28;20078;-59
2021/11/01 10:43:44;;;;;;;5.20;1.80;;;;;;;28.58;58.60;100554.59;4973936;28;20146;-60
2021/11/01 11:14:31;;;;;;;5.22;1.10;;;;;;;27.42;49.04;100553.34;4974322;28;20129;-60
2021/11/01 11:23:21;;;;;;;2.90;0.80;;;;;;;24.97;50.68;100546.44;4985888;28;20157;-59
2021/11/01 11:25:19;;;;;;;7.03;1.25;;;;;;;24.44;50.64;100544.16;4987332;28;20078;-58
2021/11/01 11:47:47;;;;;;;4.72;1.05;;;;;;;23.55;51.46;100534.28;4975485;28;20070;-60
2021/11/01 11:50:16;;;;;;;5.47;1.13;;;;;;;23.10;52.12;100543.31;4992872;28;20078;-64
2021/11/01 11:52:43;;;;;;;7.22;1.27;;;;;;;22.79;52.07;100552.59;4990857;28;20140;-61
2021/11/01 11:55:20;;;;;;;3.95;0.93;;;;;;;22.44;53.08;100536.97;4991376;28;20082;-60
2021/11/01 11:57:59;;;;;;;3.47;0.60;;;;;;;22.12;53.12;100549.34;4991340;28;20506;-60
2021/11/01 12:00:32;;;;;;;3.40;1.00;;;;;;;21.82;53.87;100549.66;4977290;28;20353;-60
2021/11/01 12:03:13;;;;;;;6.78;3.38;;;;;;;21.86;53.62;100532.72;4982366;28;20042;-60
2021/11/01 12:06:00;;;;;;;7.80;1.80;;;;;;;22.01;52.82;100514.88;4977746;28;20058;-60
2021/11/01 12:08:37;;;;;;;6.07;1.40;;;;;;;22.33;53.27;100518.75;4988699;28;20046;-60
2021/11/01 12:19:06;;;;;;;3.55;1.27;;;;;;;22.32;53.25;100539.84;4976934;28;20114;-60
2021/11/01 12:21:36;;;;;;;3.88;1.40;;;;;;;22.29;53.29;100529.22;4976923;28;20495;-60
2021/11/01 12:24:07;;;;;;;;;;;;;;;22.77;55.17;100530.19;4996009;28;20129;-59
2021/11/01 12:26:35;;;;;;;3.85;2.13;;;;;;;24.67;50.45;100526.28;4995736;28;20008;-59
2021/11/01 12:29:08;;;;;;;2.83;2.22;;;;;;;27.03;47.15;100512.78;4987925;28;20146;-59
2021/11/01 12:31:35;;;;;;;4.05;1.80;;;;;;;29.03;42.80;100520.69;4976618;28;20491;-59
2021/11/01 12:34:06;;;;;;;3.05;2.10;;;;;;;29.87;40.99;100513.72;4976552;28;20049;-59
2021/11/01 12:39:10;;;;;;;2.30;2.03;;;;;;;31.47;38.33;100517.16;4995488;28;20135;-59
2021/11/01 12:41:58;;;;;;;4.63;2.30;;;;;;;32.25;37.02;100507.72;4993455;28;20053;-60
2021/11/01 12:57:42;;;;;;;5.13;2.25;;;;;;;34.59;31.98;100494.84;4975977;28;20070;-59
2021/11/01 13:00:10;;;;;;;5.60;2.10;;;;;;;35.01;31.33;100501.00;4983468;28;20078;-59
2021/11/01 13:02:42;;;;;;;5.37;1.73;;;;;;;35.41;30.44;100497.94;4984585;28;20145;-60
2021/11/01 13:05:13;;;;;;;2.67;0.90;;;;;;;35.18;29.77;100503.91;4995038;28;20137;-60
2021/11/01 13:08:02;;;;;;;2.42;0.90;;;;;;;32.64;31.74;100506.44;4984115;28;20082;-60
2021/11/01 13:10:48;;;;;;;2.63;0.88;;;;;;;30.25;33.90;100491.03;4990920;28;20080;-60
2021/11/01 13:19:15;;;;;;;1.27;0.50;;;;;;;25.36;38.31;100477.75;4990724;28;20193;-59
2021/11/01 13:24:17;;;;;;;6.22;1.20;;;;;;;23.64;40.27;100502.75;4993323;28;20573;-59
2021/11/01 13:38:07;;;;;;;1.25;0.45;;;;;;;21.52;43.13;100483.72;4989619;28;20078;-59
2021/11/01 13:40:42;;;;;;;1.75;0.60;;;;;;;21.47;43.80;100469.72;4994161;28;20054;-58
2021/11/01 13:43:09;;;;;;;4.75;1.02;;;;;;;21.50;43.84;100486.94;4987256;28;20137;-58
2021/11/01 13:45:36;;;;;;;1.88;0.82;;;;;;;21.47;43.78;100481.94;4975265;28;20465;-58
2021/11/01 13:48:29;;;;;;;3.95;1.20;;;;;;;21.35;44.04;100484.78;4981633;28;20070;-59
2021/11/01 13:51:04;;;;;;;2.50;0.60;;;;;;;21.17;44.30;100466.31;4975156;28;20043;-59
2021/11/01 13:53:37;;;;;;;2.40;0.60;;;;;;;20.95;44.54;100482.59;4983319;28;20129;-58
2021/11/01 13:56:31;;;;;;;2.58;0.60;;;;;;;20.83;44.58;100455.03;4985813;28;20138;-59
2021/11/01 13:59:11;;;;;;;1.50;0.50;;;;;;;20.54;44.47;100461.69;4974672;28;20130;-59
2021/11/01 14:01:59;;;;;;;2.58;0.50;;;;;;;20.44;45.39;100472.63;4974931;28;20568;-59
2021/11/01 14:13:06;;;;;;;4.05;0.82;;;;;;;20.03;46.49;100478.00;4979762;28;20051;-58
2021/11/01 14:27:15;;;;;;;5.65;0.90;;;;;;;19.82;46.93;100474.34;4967087;28;20473;-67
2021/11/01 14:59:42;;;;;;;5.43;1.00;;;;;;;20.26;48.67;100461.44;4982113;28;20078;-61
2021/11/01 15:03:15;;;;;;;0.82;0.40;;;;;;;20.23;48.97;100438.63;4986828;28;20502;-62
2021/11/01 15:16:22;;;;;;;1.95;0.63;;;;;;;20.16;49.29;100458.22;4979738;28;20042;-60
2021/11/01 16:16:06;;;;;;;6.30;1.05;;;;;;;19.04;51.17;100469.94;4987822;28;20134;-62
2021/11/01 16:18:35;;;;;;;5.05;1.77;;;;;;;19.01;51.25;100455.63;4989646;28;20430;-61
2021/11/01 16:21:03;;;;;;;4.53;0.80;;;;;;;18.90;51.56;100456.00;4994238;28;20083;-61
2021/11/01 16:23:38;;;;;;;1.42;0.60;;;;;;;18.91;51.80;100456.84;4988275;28;20042;-58
2021/11/01 16:26:21;;;;;;;4.22;0.90;;;;;;;18.91;51.74;100456.84;4988896;28;20077;-59
2021/11/01 16:28:52;;;;;;;5.03;0.88;;;;;;;18.80;52.14;100452.72;4986734;28;20058;-59
2021/11/01 16:33:51;;;;;;;6.22;0.75;;;;;;;18.74;52.07;100451.25;4988769;28;20523;-65
2021/11/01 16:36:39;;;;;;;5.57;0.82;;;;;;;18.75;52.01;100450.09;4987815;28;20419;-61
2021/11/01 16:39:09;;;;;;;3.42;0.85;;;;;;;18.80;52.08;100441.41;4985320;28;20577;-62
2021/11/01 16:41:36;;;;;;;4.05;0.77;;;;;;;18.77;52.26;100451.41;4985627;28;20479;-61
2021/11/01 16:44:16;;;;;;;6.35;1.05;;;;;;;18.70;52.10;100434.09;4981628;28;20137;-61
2021/11/01 16:46:44;;;;;;;8.50;1.00;;;;;;;18.80;52.21;100447.06;4986219;28;20137;-61
2021/11/01 16:49:13;;;;;;;3.33;0.50;;;;;;;18.69;52.67;100447.41;4985351;28;20576;-61
2021/11/01 16:51:41;;;;;;;6.20;0.88;;;;;;;18.74;52.54;100440.78;4986512;28;20137;-58
2021/11/01 16:54:12;;;;;;;5.47;1.30;;;;;;;18.75;52.39;100441.59;4983489;28;20128;-64
2021/11/01 16:57:13;;;;;;;5.00;1.65;;;;;;;18.80;52.66;100449.88;4985012;28;20407;-64
2021/11/01 17:04:59;;;;;;;3.15;0.88;;;;;;;18.85;53.19;100444.88;4989569;28;20496;-62
2021/11/01 17:21:21;;;;;;;1.75;0.55;;;;;;;18.62;53.06;100449.09;4963802;28;20574;-61
2021/11/01 17:21:39;;;;;;;1.17;0.70;;;;;;;18.41;53.37;100454.63;4983168;28;20047;-61
2021/11/01 18:51:35;;;;;;;4.25;1.00;;;;;;;17.74;56.40;100510.50;4979254;28;20486;-60
2021/11/01 18:54:19;;;;;;;6.43;1.50;;;;;;;17.77;56.86;100509.00;4980506;28;20047;-60
2021/11/01 18:56:47;;;;;;;6.63;1.17;;;;;;;17.78;56.85;100505.03;4981437;28;20046;-61
2021/11/01 18:59:15;;;;;;;6.15;1.88;;;;;;;17.75;56.83;100514.97;4979393;28;20046;-61
2021/11/01 19:01:47;;;;;;;3.83;1.13;;;;;;;17.69;56.42;100501.34;4985692;28;20125;-61
2021/11/01 19:04:26;;;;;;;4.90;1.77;;;;;;;17.77;56.70;100521.13;4980759;28;20133;-60
2021/11/01 19:07:33;;;;;;;13.70;2.40;;;;;;;17.81;57.36;100528.94;4981525;28;20047;-60
2021/11/01 19:10:03;;;;;;;9.45;2.25;;;;;;;17.78;57.21;100524.81;4983541;28;20050;-60
2021/11/01 20:14:31;;;;;;;5.63;1.15;;;;;;;17.68;57.25;100544.88;4988323;28;20078;-63
2021/11/01 21:26:59;;;;;;;9.57;1.38;;;;;;;17.89;59.92;100530.97;4986436;28;20082;-58
2021/11/01 21:29:32;;;;;;;6.85;1.20;;;;;;;17.89;59.48;100525.31;4988694;28;20149;-58
2021/11/01 21:32:00;;;;;;;6.80;1.10;;;;;;;17.79;59.69;100518.00;4992093;28;20133;-57
2021/11/01 21:34:32;;;;;;;9.63;1.88;;;;;;;17.81;59.51;100514.81;4987742;28;20133;-58
2021/11/01 21:37:00;;;;;;;4.05;1.30;;;;;;;17.83;59.94;100524.63;4985752;28;20066;-58
2021/11/01 21:39:27;;;;;;;11.05;1.50;;;;;;;17.76;59.63;100519.47;4983199;28;20081;-58
2021/11/01 21:41:54;;;;;;;8.10;1.95;;;;;;;17.71;59.57;100530.09;4977931;28;20461;-57
2021/11/01 21:44:22;;;;;;;5.18;1.33;;;;;;;17.62;59.13;100524.41;4982805;28;20129;-57
2021/11/01 21:46:49;;;;;;;9.15;1.90;;;;;;;17.62;58.98;100524.41;4985126;28;20133;-58
2021/11/01 21:49:17;;;;;;;7.72;1.30;;;;;;;17.50;58.98;100518.56;4977839;28;20046;-56
2021/11/01 21:51:45;;;;;;;10.30;1.60;;;;;;;17.57;58.83;100527.38;4980782;28;20574;-58
2021/11/01 22:16:38;;;;;;;2.63;1.13;;;;;;;17.51;58.68;100520.25;4986489;28;20101;-60
2021/11/01 22:26:33;;;;;;;8.75;1.25;;;;;;;17.33;58.66;100487.44;4983613;28;23102;-57
2021/11/01 22:40:21;;;;;;;10.38;1.33;;;;;;;17.33;58.69;100476.16;4986960;28;20051;-61
2021/11/01 22:43:14;;;;;;;11.57;2.22;;;;;;;17.23;58.94;100483.78;4985075;28;20129;-59
2021/11/01 22:56:47;;;;;;;2.35;1.10;;;;;;;17.25;58.72;100464.53;4975778;28;20070;-59
2021/11/01 22:59:15;;;;;;;9.48;1.80;;;;;;;17.35;59.08;100487.97;4988267;28;20522;-59
2021/11/01 23:01:44;;;;;;;5.80;1.10;;;;;;;17.33;58.98;100487.44;4980068;28;20085;-59
2021/11/01 23:31:39;;;;;;;10.13;1.48;;;;;;;16.87;59.96;100458.59;4986321;28;20042;-60
2021/11/01 23:34:09;;;;;;;6.53;0.95;;;;;;;16.81;60.88;100471.16;4980046;28;20136;-56
2021/11/01 23:36:38;;;;;;;5.25;1.02;;;;;;;16.59;61.41;100463.56;4984385;28;22815;-56
2021/11/01 23:39:09;;;;;;;4.70;1.63;;;;;;;16.62;61.76;100465.75;4986271;28;20121;-55
2021/11/01 23:41:38;;;;;;;10.80;1.75;;;;;;;16.62;62.10;100468.56;4978151;28;20479;-54
2021/11/01 23:44:06;;;;;;;11.05;2.10;;;;;;;16.48;62.47;100476.28;4983232;28;20082;-55
2021/11/01 23:46:34;;;;;;;4.43;0.63;;;;;;;16.28;63.48;100472.81;4984757;28;20078;-57
2021/11/01 23:49:02;;;;;;;4.07;1.17;;;;;;;16.18;63.69;100487.16;4980648;28;20066;-56
2021/11/01 23:51:33;;;;;;;9.95;1.42;;;;;;;16.00;64.10;100463.69;4981317;28;20137;-56
2021/11/01 23:56:29;;;;;;;10.32;2.15;;;;;;;16.10;64.76;100473.84;4979513;28;20070;-57
2021/11/01 23:58:55;;;;;;;7.75;1.20;;;;;;;16.15;65.13;100470.91;4983614;28;20074;-55
